首页
METAR-TAF:

METAR-TAF

机场 :

新奥尔良路易斯阿姆斯特朗国际机场

新奥尔良, 路易斯安那州, 美国

纬度: 29-59-34N, 经度: 090-15-03W, 海拔: 1米

当前天气观测

该预报发布于49分钟前的02:53 UTC
风速4节,风向东转东北
温度 15°C
湿度 88%
气压 1017 hPa
能見度: 16.1公里
阴天层高于600英尺

METAR: KMSY 170253Z 06004KT 10SM OVC006 15/13 A3004 RMK AO2 SLP175 60000 T01500128 51008

时间: 21:42 (03:42 UTC)

预报

该预报发布于4小时和8分钟前的23:34 UTC
预报有效从17日的 00点(UTC)到 18日的 06点(UTC)
风速6节,风向
能見度: 4.8公里
阴天层高于400英尺
轻雾
从 17日的 0600点(UTC)
风速节,风向
能見度: 1.6公里
阴天层高于300英尺
轻雾
短暂存在
从 17日的 09点(UTC)到 17日的 13点(UTC)
能見度: 0.4公里
层高于100英尺
从 17日的 1800点(UTC)
风速3节,风向多变
能見度: 10公里
阴天层高于800英尺

TAF: KMSY 162334Z 1700/1806 01006KT 3SM BR OVC004 FM170600 00000KT 1SM BR OVC003 TEMPO 1709/1713 1/4SM FG VV001 FM171800 VRB03KT P6SM OVC008

超过4000个机场的气象观测和天气预报(METAR&TAF报告)。

可查询的气象台以黄色和红色小点在地图上表示。

将鼠标移到小点上方,可查看气象台名称。

然后点击查看天气观测和预报。

如需切换地图:点击带黑十字的绿色按钮放大地图;点击带横线的绿色按钮缩小地图;或者点击绿色箭头查看邻近地区的地图。


METAR-TAF: